Wetterdaten: Woche 25.09.17 - 01.10.17 (KW39)
Datum Zeit Temperatur Luftfeuchte Luftdruck Niederschlag Windrichtung Sonnenschein Solar Wind
25.09.2017 00:00 10,6 C 98 % 1018,9 hPa 0,0 l/m N 0,00 h 0 W/m 0,3 km/h (0 Bft)
25.09.2017 01:00 9,9 C 98 % 1018,4 hPa 0,0 l/m N 0,00 h 0 W/m 0,0 km/h (0 Bft)
25.09.2017 02:00 9,2 C 98 % 1018,4 hPa 0,0 l/m O-NO 0,00 h 0 W/m 0,9 km/h (0 Bft)
25.09.2017 03:00 8,5 C 98 % 1018,2 hPa 0,0 l/m N 0,00 h 0 W/m 0,0 km/h (0 Bft)
25.09.2017 04:00 8,0 C 98 % 1018,0 hPa 0,0 l/m N 0,00 h 0 W/m 0,0 km/h (0 Bft)
25.09.2017 05:00 7,6 C 99 % 1017,8 hPa 0,2 l/m N 0,00 h 0 W/m 0,8 km/h (0 Bft)
25.09.2017 06:00 7,2 C 99 % 1017,8 hPa 0,0 l/m N 0,00 h 0 W/m 0,7 km/h (0 Bft)
25.09.2017 07:00 7,1 C 99 % 1018,2 hPa 0,0 l/m O-NO 0,00 h 20 W/m 1,9 km/h (1 Bft)
25.09.2017 08:00 7,6 C 99 % 1018,3 hPa 0,0 l/m N 0,33 h 105 W/m 0,0 km/h (0 Bft)
25.09.2017 09:00 8,4 C 99 % 1018,3 hPa 0,0 l/m N 0,25 h 181 W/m 0,3 km/h (0 Bft)
25.09.2017 10:00 10,0 C 99 % 1018,4 hPa 0,0 l/m O-NO 0,75 h 299 W/m 3,7 km/h (1 Bft)
25.09.2017 11:00 11,8 C 96 % 1018,0 hPa 0,0 l/m O 1,00 h 520 W/m 5,2 km/h (1 Bft)
25.09.2017 12:00 14,3 C 88 % 1017,3 hPa 0,0 l/m O 1,00 h 619 W/m 2,7 km/h (1 Bft)
25.09.2017 13:00 16,3 C 78 % 1017,0 hPa 0,0 l/m SO 0,75 h 554 W/m 3,7 km/h (1 Bft)
25.09.2017 14:00 17,7 C 69 % 1016,8 hPa 0,0 l/m W 1,00 h 632 W/m 6,4 km/h (2 Bft)
25.09.2017 15:00 18,4 C 63 % 1016,4 hPa 0,0 l/m NO 1,00 h 500 W/m 7,4 km/h (2 Bft)
25.09.2017 16:00 18,0 C 61 % 1016,4 hPa 0,0 l/m O-NO 0,50 h 297 W/m 3,5 km/h (1 Bft)
25.09.2017 17:00 18,0 C 64 % 1016,5 hPa 0,0 l/m O-NO 1,00 h 192 W/m 10,6 km/h (2 Bft)
25.09.2017 18:00 16,5 C 72 % 1016,7 hPa 0,0 l/m O 0,00 h 46 W/m 6,4 km/h (2 Bft)
25.09.2017 19:00 13,3 C 86 % 1017,0 hPa 0,0 l/m N 0,00 h 7 W/m 0,0 km/h (0 Bft)
25.09.2017 20:00 11,7 C 91 % 1017,4 hPa 0,0 l/m N 0,00 h 0 W/m 0,0 km/h (0 Bft)
25.09.2017 21:00 11,1 C 92 % 1017,7 hPa 0,0 l/m N 0,00 h 0 W/m 0,3 km/h (0 Bft)
25.09.2017 22:00 10,7 C 93 % 1017,8 hPa 0,0 l/m O 0,00 h 0 W/m 0,9 km/h (0 Bft)
25.09.2017 23:00 10,6 C 94 % 1017,9 hPa 0,0 l/m N 0,00 h 0 W/m 0,0 km/h (0 Bft)
26.09.2017 00:00 10,7 C 94 % 1018,1 hPa 0,0 l/m O 0,00 h 0 W/m 1,6 km/h (1 Bft)
26.09.2017 01:00 10,6 C 94 % 1018,1 hPa 0,0 l/m N 0,00 h 0 W/m 0,0 km/h (0 Bft)
26.09.2017 02:00 10,1 C 96 % 1018,0 hPa 0,0 l/m N 0,00 h 0 W/m 0,0 km/h (0 Bft)
26.09.2017 03:00 9,5 C 96 % 1018,1 hPa 0,0 l/m O 0,00 h 0 W/m 0,7 km/h (0 Bft)
26.09.2017 04:00 8,5 C 97 % 1018,2 hPa 0,0 l/m N 0,00 h 0 W/m 0,0 km/h (0 Bft)
26.09.2017 05:00 8,0 C 97 % 1018,2 hPa 0,0 l/m N 0,00 h 0 W/m 0,0 km/h (0 Bft)
26.09.2017 06:00 7,7 C 98 % 1018,3 hPa 0,0 l/m N 0,00 h 0 W/m 0,0 km/h (0 Bft)
26.09.2017 07:00 7,3 C 98 % 1018,6 hPa 0,0 l/m N 0,00 h 15 W/m 0,0 km/h (0 Bft)
26.09.2017 08:00 7,9 C 98 % 1019,1 hPa 0,0 l/m N 0,67 h 119 W/m 0,0 km/h (0 Bft)
26.09.2017 09:00 9,8 C 98 % 1019,3 hPa 0,0 l/m N 0,92 h 272 W/m 0,0 km/h (0 Bft)
26.09.2017 10:00 12,9 C 91 % 1019,2 hPa 0,0 l/m N 1,00 h 438 W/m 0,0 km/h (0 Bft)
26.09.2017 11:00 15,3 C 83 % 1019,1 hPa 0,0 l/m N 0,92 h 592 W/m 0,0 km/h (0 Bft)
26.09.2017 12:00 16,9 C 78 % 1018,8 hPa 0,0 l/m N 1,00 h 636 W/m 0,0 km/h (0 Bft)
26.09.2017 13:00 18,5 C 68 % 1018,6 hPa 0,0 l/m N 1,00 h 675 W/m 0,0 km/h (0 Bft)
26.09.2017 14:00 19,2 C 63 % 1018,1 hPa 0,0 l/m S-SW 1,00 h 634 W/m 4,0 km/h (1 Bft)
26.09.2017 15:00 19,4 C 61 % 1017,9 hPa 0,0 l/m S-SW 0,75 h 446 W/m 4,4 km/h (1 Bft)
26.09.2017 16:00 18,9 C 61 % 1018,0 hPa 0,0 l/m N 0,25 h 200 W/m 0,0 km/h (0 Bft)
26.09.2017 17:00 18,5 C 63 % 1018,3 hPa 0,0 l/m SW 0,25 h 141 W/m 3,6 km/h (1 Bft)
26.09.2017 18:00 16,2 C 74 % 1018,9 hPa 0,0 l/m N 0,00 h 42 W/m 1,9 km/h (1 Bft)
26.09.2017 19:00 14,4 C 85 % 1019,3 hPa 0,0 l/m N 0,08 h 5 W/m 0,0 km/h (0 Bft)
26.09.2017 20:00 13,3 C 89 % 1019,9 hPa 0,0 l/m N 0,00 h 0 W/m 0,0 km/h (0 Bft)
26.09.2017 21:00 11,6 C 93 % 1020,3 hPa 0,0 l/m N 0,00 h 0 W/m 0,0 km/h (0 Bft)
26.09.2017 22:00 11,4 C 93 % 1020,5 hPa 0,0 l/m N 0,00 h 0 W/m 0,0 km/h (0 Bft)
26.09.2017 23:00 10,9 C 94 % 1020,5 hPa 0,0 l/m N 0,00 h 0 W/m 0,0 km/h (0 Bft)
27.09.2017 00:00 10,5 C 95 % 1020,5 hPa 0,0 l/m N 0,00 h 0 W/m 0,0 km/h (0 Bft)
27.09.2017 01:00 10,2 C 96 % 1020,4 hPa 0,0 l/m N 0,00 h 0 W/m 0,0 km/h (0 Bft)
27.09.2017 02:00 10,0 C 96 % 1020,4 hPa 0,0 l/m N 0,00 h 0 W/m 0,0 km/h (0 Bft)
27.09.2017 03:00 9,7 C 97 % 1020,4 hPa 0,0 l/m N 0,00 h 0 W/m 0,0 km/h (0 Bft)
27.09.2017 04:00 9,4 C 97 % 1020,4 hPa 0,0 l/m N 0,00 h 0 W/m 0,0 km/h (0 Bft)
27.09.2017 05:00 9,1 C 97 % 1020,5 hPa 0,0 l/m N 0,00 h 0 W/m 0,0 km/h (0 Bft)
27.09.2017 06:00 9,2 C 98 % 1020,7 hPa 0,0 l/m N 0,00 h 0 W/m 0,0 km/h (0 Bft)
27.09.2017 07:00 9,5 C 98 % 1020,9 hPa 0,0 l/m N 0,00 h 14 W/m 0,0 km/h (0 Bft)
27.09.2017 08:00 10,1 C 98 % 1021,3 hPa 0,0 l/m N 0,00 h 47 W/m 0,0 km/h (0 Bft)
27.09.2017 09:00 11,3 C 96 % 1021,8 hPa 0,0 l/m N 0,00 h 133 W/m 0,0 km/h (0 Bft)
27.09.2017 10:00 12,9 C 93 % 1021,8 hPa 0,0 l/m N 0,00 h 230 W/m 0,8 km/h (0 Bft)
27.09.2017 11:00 14,9 C 86 % 1021,7 hPa 0,0 l/m W-SW 0,50 h 398 W/m 6,4 km/h (2 Bft)
27.09.2017 12:00 17,1 C 79 % 1021,3 hPa 0,0 l/m SW 1,00 h 635 W/m 8,8 km/h (2 Bft)
27.09.2017 13:00 18,1 C 73 % 1020,9 hPa 0,0 l/m S-SW 0,33 h 405 W/m 7,4 km/h (2 Bft)
27.09.2017 14:00 18,4 C 72 % 1020,7 hPa 0,0 l/m W-SW 0,58 h 462 W/m 8,3 km/h (2 Bft)
27.09.2017 15:00 19,3 C 69 % 1020,5 hPa 0,0 l/m SW 0,92 h 496 W/m 3,0 km/h (1 Bft)
27.09.2017 16:00 19,5 C 67 % 1020,2 hPa 0,0 l/m W-SW 1,00 h 354 W/m 1,7 km/h (1 Bft)
27.09.2017 17:00 19,4 C 68 % 1020,2 hPa 0,0 l/m N 0,92 h 185 W/m 0,1 km/h (0 Bft)
27.09.2017 18:00 17,0 C 80 % 1020,3 hPa 0,0 l/m N 0,00 h 36 W/m 0,0 km/h (0 Bft)
27.09.2017 19:00 14,2 C 89 % 1020,7 hPa 0,0 l/m N 0,00 h 6 W/m 0,0 km/h (0 Bft)
27.09.2017 20:00 12,9 C 93 % 1021,0 hPa 0,0 l/m N 0,00 h 0 W/m 0,0 km/h (0 Bft)
27.09.2017 21:00 12,1 C 95 % 1021,3 hPa 0,0 l/m N 0,00 h 0 W/m 0,0 km/h (0 Bft)
27.09.2017 22:00 11,6 C 96 % 1021,5 hPa 0,0 l/m N 0,00 h 0 W/m 0,0 km/h (0 Bft)
27.09.2017 23:00 11,5 C 96 % 1021,7 hPa 0,0 l/m N 0,00 h 0 W/m 0,0 km/h (0 Bft)
28.09.2017 00:00 11,2 C 97 % 1021,9 hPa 0,0 l/m N 0,00 h 0 W/m 0,0 km/h (0 Bft)
28.09.2017 01:00 10,6 C 97 % 1022,0 hPa 0,0 l/m N 0,00 h 0 W/m 0,0 km/h (0 Bft)
28.09.2017 02:00 10,0 C 98 % 1022,3 hPa 0,0 l/m N 0,00 h 0 W/m 0,0 km/h (0 Bft)
28.09.2017 03:00 9,5 C 98 % 1022,1 hPa 0,0 l/m N 0,00 h 0 W/m 0,0 km/h (0 Bft)
28.09.2017 04:00 9,3 C 98 % 1022,2 hPa 0,0 l/m N 0,00 h 0 W/m 0,0 km/h (0 Bft)
28.09.2017 05:00 9,5 C 98 % 1022,7 hPa 0,0 l/m N 0,00 h 0 W/m 0,0 km/h (0 Bft)
28.09.2017 06:00 9,1 C 98 % 1022,8 hPa 0,0 l/m N 0,00 h 0 W/m 0,0 km/h (0 Bft)
28.09.2017 07:00 8,8 C 98 % 1023,2 hPa 0,0 l/m N 0,17 h 21 W/m 0,0 km/h (0 Bft)
28.09.2017 08:00 9,2 C 99 % 1023,4 hPa 0,0 l/m N 0,00 h 86 W/m 0,0 km/h (0 Bft)
28.09.2017 09:00 11,1 C 99 % 1023,6 hPa 0,0 l/m N 0,42 h 180 W/m 0,8 km/h (0 Bft)
28.09.2017 10:00 14,0 C 97 % 1023,7 hPa 0,0 l/m W-SW 1,00 h 318 W/m 4,5 km/h (1 Bft)
28.09.2017 11:00 16,2 C 86 % 1023,6 hPa 0,0 l/m W-SW 0,75 h 365 W/m 5,1 km/h (1 Bft)
28.09.2017 12:00 18,1 C 82 % 1023,4 hPa 0,0 l/m SW 1,00 h 500 W/m 7,6 km/h (2 Bft)
28.09.2017 13:00 19,4 C 77 % 1023,2 hPa 0,0 l/m SW 0,83 h 458 W/m 7,1 km/h (2 Bft)
28.09.2017 14:00 18,9 C 78 % 1023,0 hPa 0,0 l/m S-SW 0,00 h 250 W/m 8,7 km/h (2 Bft)
28.09.2017 15:00 19,2 C 75 % 1023,0 hPa 0,0 l/m S-SW 0,33 h 267 W/m 3,1 km/h (1 Bft)
28.09.2017 16:00 20,0 C 66 % 1022,8 hPa 0,0 l/m S-SW 0,83 h 358 W/m 5,9 km/h (2 Bft)
28.09.2017 17:00 19,8 C 67 % 1022,6 hPa 0,0 l/m S-SW 0,67 h 191 W/m 2,7 km/h (1 Bft)
28.09.2017 18:00 17,9 C 79 % 1022,7 hPa 0,0 l/m N 0,33 h 47 W/m 0,0 km/h (0 Bft)
28.09.2017 19:00 14,9 C 90 % 1022,9 hPa 0,0 l/m N 0,00 h 7 W/m 0,0 km/h (0 Bft)
28.09.2017 20:00 13,4 C 94 % 1023,1 hPa 0,0 l/m N 0,00 h 0 W/m 0,0 km/h (0 Bft)
28.09.2017 21:00 12,6 C 95 % 1023,3 hPa 0,0 l/m N 0,00 h 0 W/m 0,0 km/h (0 Bft)
28.09.2017 22:00 12,0 C 97 % 1023,3 hPa 0,0 l/m N 0,00 h 0 W/m 0,0 km/h (0 Bft)
28.09.2017 23:00 11,5 C 97 % 1023,3 hPa 0,0 l/m N 0,00 h 0 W/m 0,0 km/h (0 Bft)
29.09.2017 00:00 11,4 C 98 % 1022,9 hPa 0,0 l/m N 0,00 h 0 W/m 0,0 km/h (0 Bft)
29.09.2017 01:00 11,2 C 98 % 1022,7 hPa 0,0 l/m N 0,00 h 0 W/m 0,0 km/h (0 Bft)
29.09.2017 02:00 11,1 C 98 % 1022,4 hPa 0,0 l/m N 0,00 h 0 W/m 0,0 km/h (0 Bft)
29.09.2017 03:00 10,8 C 98 % 1022,0 hPa 0,0 l/m N 0,00 h 0 W/m 0,0 km/h (0 Bft)
29.09.2017 04:00 11,0 C 98 % 1021,9 hPa 0,0 l/m N 0,00 h 0 W/m 0,0 km/h (0 Bft)
29.09.2017 05:00 11,1 C 99 % 1021,7 hPa 0,0 l/m N 0,00 h 0 W/m 0,0 km/h (0 Bft)
29.09.2017 06:00 11,5 C 99 % 1021,7 hPa 0,4 l/m N 0,00 h 0 W/m 0,0 km/h (0 Bft)
29.09.2017 07:00 11,4 C 99 % 1021,9 hPa 0,0 l/m S-SW 0,00 h 10 W/m 0,5 km/h (0 Bft)
29.09.2017 08:00 11,7 C 99 % 1022,3 hPa 0,6 l/m S-SW 0,00 h 42 W/m 2,1 km/h (1 Bft)
29.09.2017 09:00 12,5 C 99 % 1022,6 hPa 0,4 l/m S-SW 0,00 h 82 W/m 1,6 km/h (1 Bft)
29.09.2017 10:00 13,3 C 99 % 1022,6 hPa 0,0 l/m S-SW 0,00 h 179 W/m 6,3 km/h (2 Bft)
29.09.2017 11:00 14,6 C 97 % 1022,2 hPa 0,0 l/m S-SW 0,58 h 341 W/m 8,6 km/h (2 Bft)
29.09.2017 12:00 16,0 C 93 % 1021,6 hPa 0,0 l/m S-SW 0,92 h 402 W/m 10,4 km/h (2 Bft)
29.09.2017 13:00 17,8 C 86 % 1021,1 hPa 0,0 l/m S-SW 1,00 h 486 W/m 9,1 km/h (2 Bft)
29.09.2017 14:00 19,3 C 77 % 1020,5 hPa 0,0 l/m S-SW 0,92 h 542 W/m 10,1 km/h (2 Bft)
29.09.2017 15:00 19,7 C 73 % 1020,0 hPa 0,0 l/m S-SW 0,58 h 327 W/m 10,8 km/h (2 Bft)
29.09.2017 16:00 19,0 C 76 % 1019,6 hPa 0,0 l/m SW 0,25 h 201 W/m 7,2 km/h (2 Bft)
29.09.2017 17:00 18,7 C 73 % 1019,4 hPa 0,0 l/m N 0,17 h 116 W/m 0,9 km/h (0 Bft)
29.09.2017 18:00 17,4 C 84 % 1019,4 hPa 0,0 l/m N 0,00 h 30 W/m 0,0 km/h (0 Bft)
29.09.2017 19:00 15,5 C 89 % 1019,5 hPa 0,0 l/m N 0,00 h 8 W/m 0,0 km/h (0 Bft)
29.09.2017 20:00 14,3 C 94 % 1019,6 hPa 0,0 l/m N 0,00 h 0 W/m 0,0 km/h (0 Bft)
29.09.2017 21:00 14,0 C 96 % 1019,4 hPa 0,0 l/m N 0,00 h 0 W/m 0,0 km/h (0 Bft)
29.09.2017 22:00 13,5 C 97 % 1019,3 hPa 0,0 l/m N 0,00 h 0 W/m 0,0 km/h (0 Bft)
29.09.2017 23:00 12,6 C 97 % 1018,9 hPa 0,0 l/m N 0,00 h 0 W/m 0,0 km/h (0 Bft)
30.09.2017 00:00 11,9 C 98 % 1018,6 hPa 0,0 l/m N 0,00 h 0 W/m 0,0 km/h (0 Bft)
30.09.2017 01:00 11,2 C 98 % 1018,2 hPa 0,0 l/m N 0,00 h 0 W/m 0,0 km/h (0 Bft)
30.09.2017 02:00 10,5 C 98 % 1017,8 hPa 0,0 l/m N 0,00 h 0 W/m 0,0 km/h (0 Bft)
30.09.2017 03:00 10,2 C 99 % 1017,4 hPa 0,0 l/m N 0,00 h 0 W/m 0,0 km/h (0 Bft)
30.09.2017 04:00 10,2 C 99 % 1017,1 hPa 0,0 l/m N 0,00 h 0 W/m 0,0 km/h (0 Bft)
30.09.2017 05:00 10,5 C 99 % 1016,9 hPa 0,0 l/m N 0,00 h 0 W/m 0,0 km/h (0 Bft)
30.09.2017 06:00 10,5 C 99 % 1016,6 hPa 0,0 l/m N 0,00 h 0 W/m 0,0 km/h (0 Bft)
30.09.2017 07:00 10,5 C 99 % 1016,4 hPa 0,0 l/m N 0,33 h 23 W/m 0,0 km/h (0 Bft)
30.09.2017 08:00 11,1 C 99 % 1016,3 hPa 0,0 l/m N 0,58 h 110 W/m 0,0 km/h (0 Bft)
30.09.2017 09:00 13,2 C 97 % 1016,0 hPa 0,0 l/m SW 0,58 h 218 W/m 2,3 km/h (1 Bft)
30.09.2017 10:00 14,8 C 91 % 1015,8 hPa 0,0 l/m SW 0,50 h 289 W/m 5,9 km/h (2 Bft)
30.09.2017 11:00 16,7 C 84 % 1015,4 hPa 0,0 l/m SW 0,75 h 432 W/m 9,5 km/h (2 Bft)
30.09.2017 12:00 18,8 C 79 % 1014,6 hPa 0,0 l/m S-SW 1,00 h 604 W/m 8,5 km/h (2 Bft)
30.09.2017 13:00 20,5 C 73 % 1013,9 hPa 0,0 l/m S-SW 1,00 h 594 W/m 10,8 km/h (2 Bft)
30.09.2017 14:00 21,0 C 72 % 1013,0 hPa 0,0 l/m SW 0,67 h 380 W/m 10,6 km/h (2 Bft)
30.09.2017 15:00 21,3 C 70 % 1012,6 hPa 0,0 l/m SW 0,92 h 417 W/m 10,6 km/h (2 Bft)
30.09.2017 16:00 21,3 C 66 % 1012,4 hPa 0,0 l/m W-SW 0,75 h 287 W/m 12,9 km/h (3 Bft)
30.09.2017 17:00 19,6 C 71 % 1012,5 hPa 0,0 l/m W-SW 0,08 h 64 W/m 12,8 km/h (3 Bft)
30.09.2017 18:00 17,7 C 84 % 1013,0 hPa 0,0 l/m W-SW 0,00 h 23 W/m 9,0 km/h (2 Bft)
30.09.2017 19:00 16,1 C 88 % 1013,9 hPa 0,2 l/m NW 0,00 h 0 W/m 5,2 km/h (1 Bft)
30.09.2017 20:00 14,7 C 93 % 1014,8 hPa 1,2 l/m NW 0,00 h 0 W/m 11,1 km/h (2 Bft)
30.09.2017 21:00 12,4 C 95 % 1016,0 hPa 5,0 l/m N 0,00 h 0 W/m 15,7 km/h (3 Bft)
30.09.2017 22:00 11,0 C 96 % 1016,7 hPa 0,4 l/m N 0,00 h 0 W/m 11,7 km/h (2 Bft)
30.09.2017 23:00 10,9 C 97 % 1017,1 hPa 1,4 l/m N 0,00 h 0 W/m 0,8 km/h (0 Bft)
01.10.2017 00:00 10,5 C 97 % 1017,4 hPa 0,4 l/m N 0,00 h 0 W/m 1,3 km/h (1 Bft)
01.10.2017 01:00 10,2 C 97 % 1017,7 hPa 0,2 l/m N 0,00 h 0 W/m 1,7 km/h (1 Bft)
01.10.2017 02:00 10,2 C 97 % 1018,1 hPa 0,2 l/m W-NW 0,00 h 0 W/m 2,0 km/h (1 Bft)
01.10.2017 03:00 10,1 C 97 % 1018,3 hPa 0,0 l/m N 0,00 h 0 W/m 2,4 km/h (1 Bft)
01.10.2017 04:00 10,1 C 97 % 1018,5 hPa 0,0 l/m N 0,00 h 0 W/m 1,3 km/h (1 Bft)
01.10.2017 05:00 10,1 C 97 % 1018,8 hPa 0,0 l/m N 0,00 h 0 W/m 0,5 km/h (0 Bft)
01.10.2017 06:00 9,9 C 97 % 1019,2 hPa 0,0 l/m N 0,00 h 0 W/m 1,3 km/h (1 Bft)
01.10.2017 07:00 9,7 C 97 % 1019,5 hPa 0,0 l/m N 0,00 h 13 W/m 0,0 km/h (0 Bft)
01.10.2017 08:00 9,2 C 97 % 1019,8 hPa 0,0 l/m N 0,08 h 40 W/m 0,0 km/h (0 Bft)
01.10.2017 09:00 9,6 C 98 % 1020,4 hPa 0,0 l/m N 0,58 h 217 W/m 0,9 km/h (0 Bft)
01.10.2017 10:00 10,8 C 90 % 1020,7 hPa 0,0 l/m NW 0,58 h 305 W/m 3,3 km/h (1 Bft)
01.10.2017 11:00 12,2 C 83 % 1020,5 hPa 0,0 l/m NO 0,58 h 512 W/m 4,5 km/h (1 Bft)
01.10.2017 12:00 12,9 C 79 % 1020,2 hPa 0,0 l/m NO 0,50 h 509 W/m 3,5 km/h (1 Bft)
01.10.2017 13:00 13,4 C 77 % 1019,9 hPa 0,0 l/m NO 0,33 h 378 W/m 1,7 km/h (1 Bft)
01.10.2017 14:00 14,6 C 71 % 1019,4 hPa 0,0 l/m O-NO 0,42 h 419 W/m 2,7 km/h (1 Bft)
01.10.2017 15:00 14,6 C 72 % 1019,5 hPa 0,0 l/m O-NO 0,17 h 257 W/m 0,5 km/h (0 Bft)
01.10.2017 16:00 15,6 C 68 % 1019,4 hPa 0,0 l/m O-NO 0,67 h 371 W/m 4,5 km/h (1 Bft)
01.10.2017 17:00 14,8 C 73 % 1019,2 hPa 0,0 l/m O 0,17 h 94 W/m 5,3 km/h (1 Bft)
01.10.2017 18:00 13,2 C 82 % 1019,4 hPa 0,0 l/m N 0,08 h 21 W/m 0,5 km/h (0 Bft)
01.10.2017 19:00 10,7 C 92 % 1019,8 hPa 0,0 l/m N 0,00 h 0 W/m 0,0 km/h (0 Bft)
01.10.2017 20:00 9,4 C 95 % 1020,2 hPa 0,0 l/m N 0,00 h 0 W/m 0,0 km/h (0 Bft)
01.10.2017 21:00 8,6 C 97 % 1020,3 hPa 0,0 l/m N 0,00 h 0 W/m 0,0 km/h (0 Bft)
01.10.2017 22:00 8,2 C 97 % 1020,6 hPa 0,0 l/m N 0,00 h 0 W/m 0,0 km/h (0 Bft)
01.10.2017 23:00 8,0 C 98 % 1020,4 hPa 0,0 l/m N 0,00 h 0 W/m 0,0 km/h (0 Bft)
Min-Datum _ 25.09.17 25.09.17 30.09.17 - - - - 25.09.17
_ Min-Zeit 07:30 16:00 15:50 - - - - 00:00
Minimum _ 7,0 C 57 % 1012,3 hPa - - - - 0,0 km/h (0 Bft)
Max-Datum _ 30.09.17 25.09.17 28.09.17 30.09.17 - 25.09.17 27.09.17 30.09.17
_ Max-Zeit 16:05 02:50 11:00 21:15 - 08:20 13:15 21:30
Maximum _ 22,2 C 100 % 1023,9 hPa 5,0 l/m - 0,08 h 833 W/m 20,9 km/h
N-NO (4 Bft)
Durchschnitt _ 13,0 C 89 % 1019,5 hPa #10,6 l/m S-SW #42:45 h 269 W/m 2,4 km/h (1 Bft)